Humidity-temperature Sensor

Selected Measurement Type: Air Temperature

 
Air Temperature [°C]     6 entries per hour
Showing data from 12/16/2022 (00:00:00 Z) to 12/15/2022 (00:01:00 Z)
Previous Next [ Day | 3-Days | 7-Days ]
First Last
Prev [ Day | 3-Days | 7-Days ] Next
First Last

Start Time:     :
End Time:     :     
Time (in GMT) :00 :50 :40 :30 :20 :10
Previous Next [ Day | 3-Days | 7-Days ]
First Last
Prev [ Day | 3-Days | 7-Days ] Next
First Last


123 => good data
MM => data is determined as missing
-- => data not received/configured
Back to Top Back to Top
12/16/2022 00:00 to 23:10 25.13 25.14 25.26 25.79 25.67 25.79
12/15/2022 23:00 to 22:10 25.40 25.44 25.45 25.39 25.28 25.43
12/15/2022 22:00 to 21:10 25.38 25.16 25.35 25.35 25.09 24.94
12/15/2022 21:00 to 20:10 24.90 24.89 24.89 24.86 25.17 24.76
12/15/2022 20:00 to 19:10 24.58 24.47 24.62 24.57 24.54 24.16
12/15/2022 19:00 to 18:10 24.29 24.11 24.17 23.95 24.07 24.02
12/15/2022 18:00 to 17:10 23.95 24.04 24.18 24.39 24.09 24.39
12/15/2022 17:00 to 16:10 24.16 24.05 24.18 24.43 24.42 24.43
12/15/2022 16:00 to 15:10 24.51 24.20 24.46 24.09 24.19 24.30
12/15/2022 15:00 to 14:10 24.01 23.98 24.19 24.16 24.36 24.27
12/15/2022 14:00 to 13:10 24.46 24.44 24.36 24.17 24.29 24.24
12/15/2022 13:00 to 12:10 24.23 24.14 24.21 24.32 24.47 24.28
12/15/2022 12:00 to 11:10 24.30 24.11 24.22 24.31 24.31 24.40
12/15/2022 11:00 to 10:10 24.15 24.45 24.38 24.24 24.22 24.18
12/15/2022 10:00 to 9:10 24.26 24.37 24.29 24.22 24.12 24.10
12/15/2022 09:00 to 8:10 24.31 24.13 24.20 24.25 23.94 24.16
12/15/2022 08:00 to 7:10 23.93 24.10 24.14 24.05 24.04 24.02
12/15/2022 07:00 to 6:10 23.87 23.91 23.90 23.96 23.82 23.90
12/15/2022 06:00 to 5:10 23.81 24.13 23.93 23.96 23.85 24.27
12/15/2022 05:00 to 4:10 24.03 24.10 23.88 24.00 24.11 24.03
12/15/2022 04:00 to 3:10 24.12 24.06 23.95 24.02 24.06 24.33
12/15/2022 03:00 to 2:10 24.31 24.10 24.30 24.17 24.24 24.02
12/15/2022 02:00 to 1:10 24.01 23.99 24.05 23.81 23.91 23.76
12/15/2022 01:00 to 0:10 23.88 24.05 24.08 23.95 24.07 24.02